COFK1: Verdigris River, Coffeyville Ks

Data processed at Fri Mar 09 2018 23:46


All information presented herein is the property of the government of the United States of America and may be revised or deleted at any time without prior notice.
Dissemination of this information without the expressed written consent of the Public Affairs Office, Tulsa District U.S. Army Corps of Engineers is strictly prohibited.
These data are gathered electronically and, as presented, have not undergone any form of quality control. These data are not guaranteed to be valid or correct.
Go to home page.
Go to station list.

Upstream stations:

Downstream station:
Previous Day
Next Day
Current Day
    
SHEF ID:       COFK1     VERDIGRIS R AT COFFEYVILLE, KS
STATION TYPE:  

                STAGE  RIV-FLOW  BAT-LOAD
                   ft       cfs      volt
              Ccp-Rev   Ccp-Rev   Ccp-Rev
(US/Central)
03/07 00:00      3.31       205     12.60
03/07 01:00      3.31       205     12.60
03/07 02:00      3.30       202     12.60
03/07 03:00      3.30       202     12.54
03/07 04:00      3.29       199     12.54
03/07 05:00      3.29       199     12.54
03/07 06:00      3.28       196     12.54
03/07 07:00      3.28       196     12.54
03/07 08:00      3.27       193     13.12
03/07 09:00      3.26       190     13.83
03/07 10:00      3.26       190     13.94
03/07 11:00      3.25       187     13.88
03/07 12:00      3.25       187     13.94
03/07 13:00      3.22       179     13.88
03/07 14:00      3.25       187     13.36
03/07 15:00      3.23       182     13.53
03/07 16:00      3.24       185     13.53
03/07 17:00      3.24       185     13.42
03/07 18:00      3.22       179     12.95
03/07 19:00      3.23       182     12.83
03/07 20:00      3.23       182     12.71
03/07 21:00      3.22       179     12.71
03/07 22:00      3.21       176     12.65
03/07 23:00      3.21       176     12.60